Time;durP1;ratioP1;P1;durP2;ratioP2;P2;SDS_P1;SDS_P2;PMS_P1;PMS_P2;Temp;Humidity;BMP_temperature;BMP_pressure;BME280_temperature;BME280_humidity;BME280_pressure;Samples;Min_cycle;Max_cycle;Signal;HPM_P1;HPM_P2
2023/01/08 00:00:45;;;;;;;2.97;1.30;;;9.50;99.90;;;;;;4927499;28;20077;-83
2023/01/08 00:03:11;;;;;;;1.33;1.20;;;9.50;99.90;;;;;;4947811;28;20050;-82
2023/01/08 00:05:36;;;;;;;1.38;1.25;;;9.60;99.90;;;;;;4932172;28;20046;-83
2023/01/08 00:08:02;;;;;;;3.25;1.35;;;9.50;99.90;;;;;;4947747;28;20101;-82
2023/01/08 00:10:28;;;;;;;1.92;1.48;;;9.60;99.90;;;;;;4946855;28;20454;-82
2023/01/08 00:12:56;;;;;;;1.77;1.40;;;9.60;99.90;;;;;;4930680;28;20057;-82
2023/01/08 00:15:22;;;;;;;1.20;0.95;;;9.60;99.90;;;;;;4943696;28;20122;-82
2023/01/08 00:17:47;;;;;;;1.73;1.25;;;9.70;99.90;;;;;;4950114;28;20126;-82
2023/01/08 00:20:13;;;;;;;1.83;1.13;;;9.60;99.90;;;;;;4949225;28;20034;-82
2023/01/08 00:22:39;;;;;;;1.60;1.40;;;9.60;99.90;;;;;;4933012;28;20077;-82
2023/01/08 00:25:05;;;;;;;2.10;1.10;;;9.70;99.90;;;;;;4931318;28;20027;-82
2023/01/08 00:27:30;;;;;;;2.00;1.45;;;9.70;99.90;;;;;;4917188;28;20059;-82
2023/01/08 00:29:56;;;;;;;1.50;1.40;;;9.70;99.90;;;;;;4944015;28;20058;-82
2023/01/08 00:32:21;;;;;;;3.38;1.42;;;9.70;99.90;;;;;;4941956;28;20046;-82
2023/01/08 00:34:47;;;;;;;2.95;1.40;;;9.60;99.90;;;;;;4947480;28;20066;-82
2023/01/08 00:37:13;;;;;;;2.47;1.15;;;9.70;99.90;;;;;;4944859;28;20035;-82
2023/01/08 00:39:38;;;;;;;2.45;1.80;;;9.70;99.90;;;;;;4915876;28;20035;-82
2023/01/08 00:42:04;;;;;;;4.20;1.20;;;9.60;99.90;;;;;;4949020;28;20042;-82
2023/01/08 00:44:29;;;;;;;2.28;1.45;;;9.70;99.90;;;;;;4920865;28;20035;-82
2023/01/08 00:46:55;;;;;;;1.77;1.30;;;9.70;99.90;;;;;;4930918;28;20549;-82
2023/01/08 00:49:20;;;;;;;2.03;1.30;;;9.70;99.90;;;;;;4939119;28;20569;-82
2023/01/08 00:51:46;;;;;;;1.67;1.35;;;9.80;99.90;;;;;;4943643;28;20494;-82
2023/01/08 00:54:36;;;;;;;1.67;1.30;;;9.70;99.90;;;;;;4949332;28;20035;-83
2023/01/08 00:57:02;;;;;;;1.88;1.25;;;9.70;99.90;;;;;;4947048;28;20111;-82
2023/01/08 00:59:27;;;;;;;1.45;1.10;;;9.70;99.90;;;;;;4932147;28;20045;-82
2023/01/08 01:01:53;;;;;;;1.60;1.02;;;9.70;99.90;;;;;;4932634;28;20577;-82
2023/01/08 01:04:19;;;;;;;1.67;1.10;;;9.70;99.90;;;;;;4928203;28;20031;-82
2023/01/08 01:06:44;;;;;;;2.08;1.60;;;9.70;99.90;;;;;;4945328;28;20125;-82
2023/01/08 01:09:10;;;;;;;2.28;1.50;;;9.70;99.90;;;;;;4933010;28;20133;-82
2023/01/08 01:11:36;;;;;;;1.98;1.15;;;9.70;99.90;;;;;;4931658;28;20062;-82
2023/01/08 01:14:01;;;;;;;4.05;2.85;;;9.80;99.90;;;;;;4929121;28;20054;-82
2023/01/08 01:16:27;;;;;;;1.88;1.40;;;9.70;99.90;;;;;;4929713;28;20038;-82
2023/01/08 01:18:53;;;;;;;3.25;1.35;;;9.80;99.90;;;;;;4944973;28;20048;-82
2023/01/08 01:21:26;;;;;;;1.38;1.13;;;9.90;99.90;;;;;;4926666;28;20043;-82
2023/01/08 01:23:53;;;;;;;1.52;1.20;;;9.80;99.90;;;;;;4934642;28;20384;-82
2023/01/08 01:26:20;;;;;;;1.60;1.20;;;9.80;99.90;;;;;;4939271;28;20035;-82
2023/01/08 01:28:52;;;;;;;1.73;1.30;;;9.80;99.90;;;;;;4947422;28;20038;-82
2023/01/08 01:31:18;;;;;;;1.95;1.02;;;9.80;99.90;;;;;;4914759;28;20062;-82
2023/01/08 01:33:44;;;;;;;1.17;0.88;;;9.70;99.90;;;;;;4933482;28;20039;-82
2023/01/08 01:36:11;;;;;;;2.13;1.58;;;9.70;99.90;;;;;;4946129;28;20045;-82
2023/01/08 01:38:36;;;;;;;2.30;1.27;;;9.70;99.90;;;;;;4916231;28;20397;-82
2023/01/08 01:41:02;;;;;;;1.80;1.20;;;9.70;99.90;;;;;;4931526;28;20061;-82
2023/01/08 01:43:38;;;;;;;2.15;1.40;;;9.70;99.90;;;;;;4944806;28;20427;-82
2023/01/08 01:46:05;;;;;;;2.38;1.20;;;9.70;99.90;;;;;;4945205;28;20042;-82
2023/01/08 01:48:31;;;;;;;1.90;1.33;;;9.70;99.90;;;;;;4931858;28;20030;-81
2023/01/08 01:50:57;;;;;;;2.03;1.50;;;9.70;99.90;;;;;;4932788;28;20490;-81
2023/01/08 01:53:30;;;;;;;1.10;0.73;;;9.60;99.90;;;;;;4918281;28;20042;-82
2023/01/08 01:55:55;;;;;;;2.47;1.15;;;9.70;99.90;;;;;;4932799;28;20037;-81
2023/01/08 01:58:28;;;;;;;1.70;1.08;;;9.70;99.90;;;;;;4948808;28;20114;-81
2023/01/08 02:00:56;;;;;;;0.68;0.57;;;9.70;99.90;;;;;;4950992;28;20042;-82
2023/01/08 02:03:25;;;;;;;3.85;1.50;;;9.70;99.90;;;;;;4934899;28;20041;-82
2023/01/08 02:05:59;;;;;;;3.83;1.40;;;9.80;99.90;;;;;;4914122;28;20026;-82
2023/01/08 02:08:34;;;;;;;2.67;1.35;;;9.70;99.90;;;;;;4920520;28;20046;-82
2023/01/08 02:11:09;;;;;;;4.10;1.30;;;9.70;99.90;;;;;;4919716;28;20102;-82
2023/01/08 02:13:37;;;;;;;2.73;1.43;;;9.70;99.90;;;;;;4933936;28;20058;-82
2023/01/08 02:16:20;;;;;;;2.72;1.55;;;9.70;99.90;;;;;;4919340;28;20039;-82
2023/01/08 02:18:47;;;;;;;1.35;1.20;;;9.70;99.90;;;;;;4933083;28;20081;-83
2023/01/08 02:21:48;;;;;;;2.95;1.35;;;9.70;99.90;;;;;;4934941;28;20047;-83
2023/01/08 02:24:22;;;;;;;3.03;1.63;;;9.60;99.90;;;;;;4924193;28;20046;-83
2023/01/08 02:26:48;;;;;;;4.55;1.65;;;9.60;99.90;;;;;;4948542;28;20030;-83
2023/01/08 02:29:15;;;;;;;2.50;1.55;;;9.60;99.90;;;;;;4933722;28;20510;-83
2023/01/08 02:31:41;;;;;;;2.88;1.63;;;9.60;99.90;;;;;;4945376;28;20043;-83
2023/01/08 02:34:07;;;;;;;3.47;1.42;;;9.60;99.90;;;;;;4931680;28;20050;-83
2023/01/08 02:36:44;;;;;;;3.67;1.58;;;9.60;99.90;;;;;;4919411;28;20027;-83
2023/01/08 02:39:38;;;;;;;3.35;1.48;;;9.60;99.90;;;;;;4949232;28;20162;-83
2023/01/08 02:42:28;;;;;;;3.85;1.75;;;9.50;99.90;;;;;;4931568;28;20499;-83
2023/01/08 02:45:08;;;;;;;2.53;1.30;;;9.50;99.90;;;;;;4945345;28;20035;-83
2023/01/08 02:47:53;;;;;;;3.90;2.58;;;9.50;99.90;;;;;;4965069;28;20125;-83
2023/01/08 02:50:32;;;;;;;2.35;1.63;;;9.50;99.90;;;;;;4945731;28;20475;-82
2023/01/08 02:53:03;;;;;;;2.88;1.77;;;9.50;99.90;;;;;;4915227;28;20037;-83
2023/01/08 02:55:29;;;;;;;2.13;1.55;;;9.50;99.90;;;;;;4951933;28;20023;-83
2023/01/08 02:57:55;;;;;;;4.97;1.85;;;9.50;99.90;;;;;;4930940;28;20554;-82
2023/01/08 03:00:20;;;;;;;2.10;1.38;;;9.40;99.90;;;;;;4946699;28;20097;-83
2023/01/08 03:02:46;;;;;;;3.08;1.73;;;9.40;99.90;;;;;;4932246;28;20455;-83
2023/01/08 03:05:21;;;;;;;5.82;2.10;;;9.40;99.90;;;;;;4933174;28;20026;-83
2023/01/08 03:07:46;;;;;;;3.60;1.67;;;9.40;99.90;;;;;;4948330;28;20109;-83
2023/01/08 03:10:12;;;;;;;3.67;2.00;;;9.40;99.90;;;;;;4946025;28;20050;-83
2023/01/08 03:12:52;;;;;;;2.80;1.40;;;9.40;99.90;;;;;;4948564;28;20436;-83
2023/01/08 03:15:25;;;;;;;2.03;1.50;;;9.40;99.90;;;;;;4933727;28;20070;-82
2023/01/08 03:17:52;;;;;;;2.50;1.65;;;9.40;99.90;;;;;;4915519;28;20053;-83
2023/01/08 03:20:20;;;;;;;3.35;1.58;;;9.30;99.90;;;;;;4941764;28;20075;-83
2023/01/08 03:22:48;;;;;;;3.90;1.40;;;9.40;99.90;;;;;;4947295;28;20043;-83
2023/01/08 03:25:14;;;;;;;2.38;1.55;;;9.40;99.90;;;;;;4917725;28;20041;-83
2023/01/08 03:27:43;;;;;;;2.47;1.55;;;9.40;99.90;;;;;;4918752;28;20084;-83
2023/01/08 03:30:09;;;;;;;3.85;1.90;;;9.40;99.90;;;;;;4948798;28;20126;-83
2023/01/08 03:32:34;;;;;;;2.63;1.70;;;9.40;99.90;;;;;;4933815;28;20070;-83
2023/01/08 03:35:00;;;;;;;3.25;1.58;;;9.40;99.90;;;;;;4945338;28;20117;-83
2023/01/08 03:37:32;;;;;;;6.45;1.83;;;9.30;99.90;;;;;;4930041;28;20034;-83
2023/01/08 03:40:08;;;;;;;4.50;2.00;;;9.30;99.90;;;;;;4930126;28;20030;-83
2023/01/08 03:42:34;;;;;;;1.70;1.40;;;9.30;99.90;;;;;;4934777;28;20034;-83
2023/01/08 03:44:59;;;;;;;3.22;1.70;;;9.30;99.90;;;;;;4932819;28;20040;-83
2023/01/08 03:47:26;;;;;;;1.67;1.58;;;9.30;99.90;;;;;;4951517;28;20038;-83
2023/01/08 03:49:51;;;;;;;2.97;1.98;;;9.30;99.90;;;;;;4917230;28;20035;-83
2023/01/08 03:52:24;;;;;;;1.83;1.50;;;9.30;99.90;;;;;;4933731;28;20104;-83
2023/01/08 03:54:49;;;;;;;2.97;1.58;;;9.30;99.90;;;;;;4946775;28;20050;-83
2023/01/08 03:57:15;;;;;;;1.73;1.52;;;9.30;99.90;;;;;;4951107;28;20043;-83
2023/01/08 03:59:41;;;;;;;2.10;1.58;;;9.30;99.90;;;;;;4920209;28;20030;-83
2023/01/08 04:02:07;;;;;;;1.95;1.77;;;9.20;99.90;;;;;;4932559;28;20081;-83
2023/01/08 04:04:33;;;;;;;1.45;1.30;;;9.20;99.90;;;;;;4934397;28;20070;-83
2023/01/08 04:06:58;;;;;;;3.40;1.90;;;9.20;99.90;;;;;;4918974;28;20070;-83
2023/01/08 04:09:24;;;;;;;2.30;1.30;;;9.20;99.90;;;;;;4945658;28;20062;-83
2023/01/08 04:11:49;;;;;;;3.25;1.70;;;9.20;99.90;;;;;;4935281;28;20347;-83
2023/01/08 04:14:15;;;;;;;2.72;1.40;;;9.30;99.90;;;;;;4932801;28;20034;-83
2023/01/08 04:16:40;;;;;;;2.80;1.60;;;9.30;99.90;;;;;;4933363;28;20039;-82
2023/01/08 04:19:06;;;;;;;1.55;1.40;;;9.20;99.90;;;;;;4932462;28;20043;-83
2023/01/08 04:21:31;;;;;;;1.95;1.30;;;9.30;99.90;;;;;;4946694;28;20034;-83
2023/01/08 04:23:57;;;;;;;2.05;1.65;;;9.20;99.90;;;;;;4948131;28;20023;-83
2023/01/08 04:26:22;;;;;;;2.47;1.23;;;9.20;99.90;;;;;;4931046;28;20071;-83
2023/01/08 04:28:48;;;;;;;3.30;1.63;;;9.20;99.90;;;;;;4932487;28;20053;-83
2023/01/08 04:31:13;;;;;;;2.35;1.23;;;9.20;99.90;;;;;;4937336;28;20050;-83
2023/01/08 04:33:39;;;;;;;1.83;1.35;;;9.30;99.90;;;;;;4935849;28;20372;-83
2023/01/08 04:36:04;;;;;;;1.75;1.45;;;9.20;99.90;;;;;;4916868;28;20521;-83
2023/01/08 04:38:30;;;;;;;2.03;1.40;;;9.20;99.90;;;;;;4947218;28;20542;-83
2023/01/08 04:40:59;;;;;;;1.63;1.42;;;9.30;99.90;;;;;;4929290;28;20062;-83
2023/01/08 04:43:25;;;;;;;1.65;1.15;;;9.30;99.90;;;;;;4947895;28;20508;-83
2023/01/08 04:45:50;;;;;;;1.33;1.20;;;9.30;99.90;;;;;;4947225;28;20058;-83
2023/01/08 04:48:16;;;;;;;1.52;1.05;;;9.30;99.90;;;;;;4942986;28;20117;-83
2023/01/08 04:50:41;;;;;;;1.25;1.10;;;9.30;99.90;;;;;;4917580;28;20031;-83
2023/01/08 04:53:07;;;;;;;1.85;1.30;;;9.30;99.90;;;;;;4933192;28;20039;-83
2023/01/08 04:55:32;;;;;;;2.25;1.30;;;9.30;99.90;;;;;;4912781;28;20503;-83
2023/01/08 04:57:58;;;;;;;1.17;1.08;;;9.20;99.90;;;;;;4920683;28;20034;-83
2023/01/08 05:00:24;;;;;;;2.10;1.20;;;9.20;99.90;;;;;;4935853;28;20117;-83
2023/01/08 05:02:49;;;;;;;3.22;1.48;;;9.20;99.90;;;;;;4932692;28;20046;-83
2023/01/08 05:05:15;;;;;;;1.80;1.05;;;9.20;99.90;;;;;;4939755;28;20032;-83
2023/01/08 05:07:40;;;;;;;1.95;1.00;;;9.20;99.90;;;;;;4944814;28;20031;-83
2023/01/08 05:10:06;;;;;;;1.05;0.80;;;9.20;99.90;;;;;;4942353;28;20042;-83
2023/01/08 05:12:32;;;;;;;1.05;0.93;;;9.20;99.90;;;;;;4928564;28;20031;-84
2023/01/08 05:14:57;;;;;;;4.15;0.90;;;9.10;99.90;;;;;;4942706;28;20037;-83
2023/01/08 05:17:23;;;;;;;2.05;0.90;;;9.10;99.90;;;;;;4950166;28;20042;-83
2023/01/08 05:19:48;;;;;;;2.75;1.23;;;9.00;99.90;;;;;;4947652;28;20403;-83
2023/01/08 05:22:14;;;;;;;2.30;0.70;;;9.10;99.90;;;;;;4947571;28;20653;-83
2023/01/08 05:24:39;;;;;;;2.60;1.20;;;9.10;99.90;;;;;;4933983;28;20439;-83
2023/01/08 05:27:05;;;;;;;0.75;0.60;;;9.20;99.90;;;;;;4916933;28;20151;-83
2023/01/08 05:29:30;;;;;;;0.57;0.57;;;9.10;99.90;;;;;;4919989;28;20023;-83
2023/01/08 05:31:56;;;;;;;2.72;0.95;;;9.10;99.90;;;;;;4918083;28;20039;-83
2023/01/08 05:34:21;;;;;;;0.88;0.77;;;9.20;99.90;;;;;;4965799;28;20394;-83
2023/01/08 05:36:47;;;;;;;1.00;0.77;;;9.20;99.90;;;;;;4930604;28;20714;-83
2023/01/08 05:39:13;;;;;;;0.60;0.60;;;9.20;99.90;;;;;;4914498;28;20039;-83
2023/01/08 05:41:38;;;;;;;1.05;0.70;;;9.10;99.90;;;;;;4942442;28;20053;-83
2023/01/08 05:44:04;;;;;;;1.73;1.10;;;9.10;99.90;;;;;;4944959;28;20109;-83
2023/01/08 05:46:29;;;;;;;1.65;0.80;;;9.10;99.90;;;;;;4919351;28;20138;-83
2023/01/08 05:48:56;;;;;;;1.98;0.70;;;9.10;99.90;;;;;;4933133;28;20086;-83
2023/01/08 05:51:21;;;;;;;1.58;1.08;;;9.20;99.90;;;;;;4944504;28;20562;-82
2023/01/08 05:53:47;;;;;;;0.85;0.60;;;9.20;99.90;;;;;;4947161;28;20046;-83
2023/01/08 05:56:12;;;;;;;0.82;0.70;;;9.20;99.90;;;;;;4930238;28;20130;-83
2023/01/08 05:58:38;;;;;;;1.10;0.80;;;9.20;99.90;;;;;;4931648;28;20158;-83
2023/01/08 06:01:11;;;;;;;1.20;0.60;;;9.20;99.90;;;;;;4928524;28;20057;-83
2023/01/08 06:03:37;;;;;;;2.60;0.60;;;9.20;99.90;;;;;;4942585;28;20404;-83
2023/01/08 06:06:03;;;;;;;1.33;0.57;;;9.20;99.90;;;;;;4945983;28;20038;-83
2023/01/08 06:08:29;;;;;;;2.10;0.80;;;9.20;99.90;;;;;;4926237;28;20035;-83
2023/01/08 06:11:01;;;;;;;2.83;0.82;;;9.20;99.90;;;;;;4929140;28;20070;-83
2023/01/08 06:13:26;;;;;;;1.92;0.57;;;9.20;99.90;;;;;;4945196;28;20483;-83
2023/01/08 06:15:52;;;;;;;0.70;0.57;;;9.20;99.90;;;;;;4930168;28;20067;-83
2023/01/08 06:18:18;;;;;;;3.60;0.80;;;9.20;99.90;;;;;;4927531;28;20038;-83
2023/01/08 06:20:43;;;;;;;0.70;0.70;;;9.20;99.90;;;;;;4927732;28;20039;-83
2023/01/08 06:23:09;;;;;;;1.00;0.65;;;9.30;99.90;;;;;;4933645;28;20034;-83
2023/01/08 06:25:35;;;;;;;2.17;0.80;;;9.20;99.90;;;;;;4934349;28;20034;-83
2023/01/08 06:28:01;;;;;;;1.98;1.45;;;9.30;99.90;;;;;;4947152;28;20027;-83
2023/01/08 06:30:27;;;;;;;1.58;0.70;;;9.20;99.90;;;;;;4931675;28;20395;-83
2023/01/08 06:32:56;;;;;;;1.20;0.63;;;9.20;99.90;;;;;;4931406;28;20039;-82
2023/01/08 06:35:22;;;;;;;0.75;0.55;;;9.30;99.90;;;;;;4925809;28;20483;-83
2023/01/08 06:37:48;;;;;;;1.13;0.50;;;9.30;99.90;;;;;;4914395;28;20023;-83
2023/01/08 06:40:13;;;;;;;2.05;0.50;;;9.30;99.90;;;;;;4929538;28;20082;-83
2023/01/08 06:42:39;;;;;;;1.13;0.63;;;9.30;99.90;;;;;;4948365;28;20050;-83
2023/01/08 06:45:05;;;;;;;1.13;0.63;;;9.30;99.90;;;;;;4936770;28;20054;-83
2023/01/08 06:47:31;;;;;;;2.90;0.55;;;9.20;99.90;;;;;;4945043;28;20031;-83
2023/01/08 06:49:58;;;;;;;1.60;0.60;;;9.30;99.90;;;;;;4934598;28;20549;-83
2023/01/08 06:52:23;;;;;;;1.35;0.68;;;9.30;99.90;;;;;;4932784;28;20046;-83
2023/01/08 06:54:49;;;;;;;0.68;0.50;;;9.30;99.90;;;;;;4936351;28;20088;-83
2023/01/08 06:57:14;;;;;;;0.25;0.25;;;9.20;99.90;;;;;;4948303;28;20562;-83
2023/01/08 06:59:40;;;;;;;4.15;0.40;;;9.30;99.90;;;;;;4950025;28;20045;-83
2023/01/08 07:02:07;;;;;;;2.10;0.60;;;9.40;99.90;;;;;;4933692;28;20047;-83
2023/01/08 07:04:33;;;;;;;0.82;0.47;;;9.30;99.90;;;;;;4949562;28;20039;-83
2023/01/08 07:06:58;;;;;;;0.85;0.70;;;9.10;99.90;;;;;;4946235;28;20541;-84
2023/01/08 07:09:24;;;;;;;1.10;0.50;;;9.10;99.90;;;;;;4936107;28;20062;-84
2023/01/08 07:11:49;;;;;;;0.70;0.70;;;9.00;99.90;;;;;;4947873;28;20023;-84
2023/01/08 07:14:15;;;;;;;0.93;0.45;;;9.00;99.90;;;;;;4945586;28;20509;-84
2023/01/08 07:16:41;;;;;;;2.13;0.60;;;9.00;99.90;;;;;;4923291;28;20541;-85
2023/01/08 07:19:06;;;;;;;1.27;0.60;;;9.00;99.90;;;;;;4946704;28;20039;-85
2023/01/08 07:21:32;;;;;;;1.27;0.85;;;9.10;99.90;;;;;;4932622;28;20031;-84
2023/01/08 07:23:58;;;;;;;0.30;0.30;;;8.90;99.90;;;;;;4929532;28;20191;-84
2023/01/08 07:26:23;;;;;;;1.23;0.40;;;9.00;99.90;;;;;;4931930;28;20039;-84
2023/01/08 07:28:49;;;;;;;1.70;0.30;;;8.90;99.90;;;;;;4933664;28;20032;-84
2023/01/08 07:31:14;;;;;;;0.75;0.30;;;8.90;99.90;;;;;;4916990;28;20118;-84
2023/01/08 07:33:40;;;;;;;2.92;0.50;;;8.80;99.90;;;;;;4932932;28;20062;-83
2023/01/08 07:36:06;;;;;;;0.80;0.68;;;8.90;99.90;;;;;;4917375;28;20035;-84
2023/01/08 07:38:32;;;;;;;0.40;0.20;;;8.80;99.90;;;;;;4934290;28;20550;-84
2023/01/08 07:40:58;;;;;;;1.95;0.38;;;8.60;99.90;;;;;;4918032;28;20043;-83
2023/01/08 07:43:25;;;;;;;1.30;0.40;;;8.70;99.90;;;;;;4927994;28;20114;-83
2023/01/08 07:45:50;;;;;;;1.63;0.40;;;8.70;99.90;;;;;;4930736;28;20439;-84
2023/01/08 07:48:16;;;;;;;0.50;0.30;;;8.60;99.90;;;;;;4927540;28;20039;-84
2023/01/08 07:50:42;;;;;;;0.38;0.30;;;8.50;99.90;;;;;;4931939;28;20093;-83
2023/01/08 07:53:08;;;;;;;0.20;0.20;;;8.60;99.90;;;;;;4932981;28;20705;-83
2023/01/08 07:55:34;;;;;;;2.03;0.43;;;8.50;99.90;;;;;;4936855;28;20034;-84
2023/01/08 07:57:59;;;;;;;2.05;0.30;;;8.60;99.90;;;;;;4933556;28;20023;-84
2023/01/08 08:00:25;;;;;;;0.60;0.20;;;8.50;99.90;;;;;;4919882;28;20562;-84
2023/01/08 08:02:50;;;;;;;2.85;0.52;;;8.50;99.90;;;;;;4911963;29;20067;-84
2023/01/08 08:05:19;;;;;;;0.52;0.30;;;8.40;99.90;;;;;;4929799;28;20125;-84
2023/01/08 08:07:44;;;;;;;2.42;0.68;;;8.40;99.90;;;;;;4932666;28;20030;-84
2023/01/08 08:10:10;;;;;;;0.75;0.17;;;8.30;99.90;;;;;;4933238;28;20104;-86
2023/01/08 08:12:36;;;;;;;1.17;0.20;;;8.40;99.90;;;;;;4930814;28;20419;-84
2023/01/08 08:15:02;;;;;;;1.88;0.52;;;8.30;99.90;;;;;;4932904;28;20410;-83
2023/01/08 08:17:27;;;;;;;3.85;0.57;;;8.30;99.90;;;;;;4914481;28;20042;-84
2023/01/08 08:19:53;;;;;;;2.38;0.70;;;8.30;99.90;;;;;;4929283;28;20030;-84
2023/01/08 08:22:19;;;;;;;1.20;0.30;;;8.20;99.90;;;;;;4925761;28;20134;-83
2023/01/08 08:24:44;;;;;;;0.60;0.30;;;8.20;99.90;;;;;;4930803;28;20383;-84
2023/01/08 08:27:10;;;;;;;1.77;0.47;;;8.20;99.90;;;;;;4930379;28;20030;-84
2023/01/08 08:29:35;;;;;;;3.78;0.38;;;8.20;99.90;;;;;;4933000;28;20113;-84
2023/01/08 08:32:01;;;;;;;1.20;0.28;;;8.20;99.90;;;;;;4929112;28;20505;-81
2023/01/08 08:34:27;;;;;;;2.42;1.08;;;8.10;99.90;;;;;;4943299;28;20597;-84
2023/01/08 08:36:52;;;;;;;0.77;0.30;;;8.10;99.90;;;;;;4934215;28;20030;-82
2023/01/08 08:39:18;;;;;;;1.58;0.55;;;8.10;99.90;;;;;;4929345;28;20434;-85
2023/01/08 08:41:43;;;;;;;0.82;0.38;;;8.10;99.90;;;;;;4931486;28;20070;-85
2023/01/08 08:44:09;;;;;;;2.15;1.30;;;8.00;99.90;;;;;;4946389;28;20552;-85
2023/01/08 08:46:34;;;;;;;0.95;0.30;;;8.00;99.90;;;;;;4935651;28;20035;-86
2023/01/08 08:49:00;;;;;;;10.02;0.82;;;8.10;99.90;;;;;;4947022;28;20070;-85
2023/01/08 08:51:27;;;;;;;2.90;0.70;;;8.00;99.90;;;;;;4945681;28;20132;-85
2023/01/08 08:53:52;;;;;;;1.65;0.22;;;8.00;99.90;;;;;;4948352;28;20035;-84
2023/01/08 08:56:18;;;;;;;0.75;0.20;;;8.00;99.90;;;;;;4934634;28;20049;-84
2023/01/08 08:58:44;;;;;;;1.65;0.43;;;7.90;99.90;;;;;;4945476;28;20043;-85
2023/01/08 09:01:09;;;;;;;7.18;0.88;;;7.90;99.90;;;;;;4916051;28;20045;-84
2023/01/08 09:03:35;;;;;;;3.40;0.68;;;7.90;99.90;;;;;;4926889;28;20039;-84
2023/01/08 09:06:01;;;;;;;3.10;0.43;;;7.80;99.90;;;;;;4916418;28;20050;-84
2023/01/08 09:08:26;;;;;;;1.55;0.68;;;7.80;99.90;;;;;;4930528;28;20027;-84
2023/01/08 09:10:52;;;;;;;2.38;0.80;;;7.90;99.90;;;;;;4943215;28;20073;-84
2023/01/08 09:13:17;;;;;;;5.20;0.90;;;8.00;99.90;;;;;;4928710;28;20114;-83
2023/01/08 09:15:43;;;;;;;5.93;1.10;;;8.00;99.90;;;;;;4911026;28;20023;-83
2023/01/08 09:18:08;;;;;;;7.50;1.23;;;8.00;99.90;;;;;;4928525;28;20035;-83
2023/01/08 09:20:34;;;;;;;4.47;1.00;;;8.10;99.90;;;;;;4909657;28;20031;-83
2023/01/08 09:23:00;;;;;;;4.55;0.57;;;8.10;99.90;;;;;;4916205;28;20506;-82
2023/01/08 09:25:26;;;;;;;6.50;1.10;;;8.20;99.90;;;;;;4930729;28;20093;-81
2023/01/08 09:28:05;;;;;;;3.67;0.60;;;8.20;99.90;;;;;;4917217;28;20039;-83
2023/01/08 09:30:31;;;;;;;9.90;1.02;;;8.40;99.90;;;;;;4923667;28;20038;-82
2023/01/08 09:33:02;;;;;;;4.20;0.60;;;8.40;99.90;;;;;;4927896;28;20046;-82
2023/01/08 09:35:28;;;;;;;5.03;0.95;;;8.50;99.90;;;;;;4947342;28;20058;-83
2023/01/08 09:37:54;;;;;;;5.45;0.88;;;8.70;99.90;;;;;;4930152;28;20073;-83
2023/01/08 09:40:34;;;;;;;3.63;0.57;;;8.80;99.90;;;;;;4944816;28;20042;-82
2023/01/08 09:43:00;;;;;;;5.57;1.00;;;8.80;99.90;;;;;;4947352;28;20066;-82
2023/01/08 09:45:30;;;;;;;2.05;0.52;;;8.90;99.90;;;;;;4934649;28;20042;-82
2023/01/08 09:47:57;;;;;;;7.35;1.20;;;9.10;99.90;;;;;;4927995;28;20043;-83
2023/01/08 09:50:22;;;;;;;2.17;0.68;;;9.20;99.90;;;;;;4914987;28;20090;-82
2023/01/08 09:52:48;;;;;;;4.07;1.17;;;9.40;99.90;;;;;;4944047;28;20023;-83
2023/01/08 09:55:14;;;;;;;3.72;0.75;;;9.50;99.90;;;;;;4916135;28;20030;-84
2023/01/08 09:57:40;;;;;;;3.83;1.00;;;9.50;99.90;;;;;;4942326;28;20069;-82
2023/01/08 10:00:14;;;;;;;4.80;1.00;;;9.60;99.90;;;;;;4924981;28;20042;-83
2023/01/08 10:02:39;;;;;;;4.07;0.82;;;9.80;99.90;;;;;;4940178;28;20098;-83
2023/01/08 10:05:11;;;;;;;4.40;0.80;;;9.90;99.90;;;;;;4947295;28;20455;-83
2023/01/08 10:07:38;;;;;;;2.90;0.60;;;9.90;99.90;;;;;;4918087;28;20035;-83
2023/01/08 10:10:04;;;;;;;4.28;0.80;;;10.00;99.90;;;;;;4933207;28;20043;-84
2023/01/08 10:12:30;;;;;;;6.57;1.05;;;10.10;99.90;;;;;;4942149;28;20122;-84
2023/01/08 10:15:04;;;;;;;4.95;1.20;;;10.30;99.90;;;;;;4949710;28;20038;-85
2023/01/08 10:18:00;;;;;;;6.55;1.20;;;10.20;99.90;;;;;;4933317;28;20521;-85
2023/01/08 10:20:26;;;;;;;2.90;0.90;;;10.40;99.90;;;;;;4941135;28;20521;-84
2023/01/08 10:22:55;;;;;;;6.18;1.05;;;10.60;99.90;;;;;;4917083;28;20046;-85
2023/01/08 10:25:25;;;;;;;3.25;0.77;;;10.90;99.90;;;;;;4934551;28;20042;-85
2023/01/08 10:27:52;;;;;;;3.47;0.70;;;10.90;99.90;;;;;;4920005;28;20502;-84
2023/01/08 10:30:22;;;;;;;1.95;0.90;;;11.00;99.90;;;;;;4933626;28;20094;-85
2023/01/08 10:32:53;;;;;;;1.75;0.52;;;11.10;99.90;;;;;;4930647;28;20829;-84
2023/01/08 10:35:21;;;;;;;3.28;1.13;;;11.20;99.90;;;;;;4921184;28;20540;-84
2023/01/08 10:37:49;;;;;;;4.32;1.08;;;11.40;99.90;;;;;;4923792;28;20035;-84
2023/01/08 10:40:40;;;;;;;2.90;1.10;;;11.40;99.90;;;;;;4920663;28;20431;-84
2023/01/08 10:43:14;;;;;;;2.92;0.45;;;11.40;99.90;;;;;;4949205;28;20035;-85
2023/01/08 10:45:40;;;;;;;7.93;1.10;;;11.50;99.90;;;;;;4918764;28;20035;-84
2023/01/08 10:48:07;;;;;;;4.70;1.15;;;11.60;99.90;;;;;;4926999;28;20060;-84
2023/01/08 10:50:33;;;;;;;5.43;1.10;;;11.70;99.90;;;;;;4937228;28;20053;-84
2023/01/08 10:53:05;;;;;;;2.90;0.90;;;11.80;99.90;;;;;;4895642;28;20035;-84
2023/01/08 10:55:34;;;;;;;4.50;1.92;;;11.90;99.90;;;;;;4930953;28;20443;-84
2023/01/08 10:58:12;;;;;;;5.38;1.02;;;11.60;99.90;;;;;;4948749;28;20577;-84
2023/01/08 11:00:37;;;;;;;4.85;1.25;;;11.70;99.90;;;;;;4936205;28;20042;-84
2023/01/08 11:03:05;;;;;;;6.10;1.13;;;12.10;99.90;;;;;;4946108;28;20039;-84
2023/01/08 11:05:32;;;;;;;3.45;1.00;;;11.90;99.90;;;;;;4923500;28;20181;-84
2023/01/08 11:07:58;;;;;;;3.47;0.95;;;11.90;99.90;;;;;;4921279;28;20030;-84
2023/01/08 11:10:25;;;;;;;4.13;1.10;;;12.20;99.90;;;;;;4944750;28;20027;-84
2023/01/08 11:13:13;;;;;;;3.85;1.38;;;12.30;99.90;;;;;;4907027;28;20035;-84
2023/01/08 11:15:42;;;;;;;3.00;0.77;;;12.30;99.90;;;;;;4944259;28;20053;-84
2023/01/08 11:18:21;;;;;;;0.98;0.50;;;12.20;99.90;;;;;;4930674;28;20431;-84
2023/01/08 11:20:46;;;;;;;2.58;0.80;;;12.20;99.90;;;;;;4948779;28;20039;-84
2023/01/08 11:23:16;;;;;;;3.85;1.02;;;12.10;99.90;;;;;;4934540;28;20030;-84
2023/01/08 11:25:46;;;;;;;3.28;0.90;;;12.10;99.90;;;;;;4947417;28;20031;-84
2023/01/08 11:28:17;;;;;;;2.22;0.73;;;12.20;99.90;;;;;;4946730;28;20395;-84
2023/01/08 11:30:44;;;;;;;3.03;0.93;;;12.10;99.90;;;;;;4945237;28;20060;-84
2023/01/08 11:33:17;;;;;;;1.50;0.90;;;12.20;99.90;;;;;;4946954;28;20068;-84
2023/01/08 11:36:21;;;;;;;2.35;1.00;;;12.10;99.90;;;;;;4931191;28;20477;-84
2023/01/08 11:38:47;;;;;;;2.65;0.70;;;12.10;99.90;;;;;;4947526;28;20134;-84
2023/01/08 11:41:23;;;;;;;2.88;1.10;;;12.00;99.90;;;;;;4918046;28;20155;-84
2023/01/08 11:44:12;;;;;;;3.42;0.65;;;12.10;99.90;;;;;;4945278;28;20100;-84
2023/01/08 11:46:46;;;;;;;1.92;0.85;;;11.90;99.90;;;;;;4932266;28;20431;-84
2023/01/08 11:49:35;;;;;;;4.00;1.35;;;12.00;99.90;;;;;;4943641;28;20110;-84
2023/01/08 11:52:09;;;;;;;0.98;0.45;;;11.90;99.90;;;;;;4944697;28;20376;-84
2023/01/08 11:54:34;;;;;;;2.35;0.70;;;11.90;99.90;;;;;;4915495;28;20035;-84
2023/01/08 11:57:08;;;;;;;4.82;0.80;;;11.90;99.90;;;;;;4948119;28;20506;-84
2023/01/08 11:59:54;;;;;;;1.33;0.80;;;11.90;99.90;;;;;;4945674;28;20121;-84
2023/01/08 12:02:40;;;;;;;1.55;0.73;;;12.00;99.90;;;;;;4929445;28;20042;-84
2023/01/08 12:05:06;;;;;;;3.83;0.93;;;12.00;99.90;;;;;;4940125;28;20104;-84
2023/01/08 12:07:39;;;;;;;2.22;0.40;;;12.00;99.90;;;;;;4944065;28;20553;-84
2023/01/08 12:10:23;;;;;;;3.25;1.05;;;11.90;99.90;;;;;;4943735;28;20050;-84
2023/01/08 12:13:09;;;;;;;3.65;0.70;;;11.90;99.90;;;;;;4948750;28;20031;-85
2023/01/08 12:15:38;;;;;;;2.17;0.82;;;12.00;99.90;;;;;;4964458;28;20062;-84
2023/01/08 12:18:21;;;;;;;5.28;0.68;;;11.90;99.90;;;;;;4620009;28;9999990;-84
2023/01/08 12:21:09;;;;;;;3.92;0.60;;;11.80;99.90;;;;;;4939942;28;20109;-84
2023/01/08 12:23:46;;;;;;;3.45;0.98;;;11.80;99.90;;;;;;4928219;28;20046;-84
2023/01/08 12:26:23;;;;;;;1.13;0.82;;;11.80;99.90;;;;;;4947764;28;20487;-84
2023/01/08 12:29:16;;;;;;;4.18;1.20;;;11.70;99.90;;;;;;4930440;28;20058;-84
2023/01/08 12:32:09;;;;;;;2.97;1.02;;;11.70;99.90;;;;;;4943244;28;20022;-84
2023/01/08 12:34:53;;;;;;;5.43;0.50;;;11.70;99.90;;;;;;4939855;28;20031;-85
2023/01/08 12:37:33;;;;;;;5.82;1.30;;;11.50;99.90;;;;;;4942695;28;20574;-86
2023/01/08 12:40:02;;;;;;;2.53;0.32;;;11.20;99.90;;;;;;4931468;28;20045;-86
2023/01/08 12:42:28;;;;;;;1.08;0.73;;;10.90;99.90;;;;;;4964549;28;20034;-87
2023/01/08 12:44:54;;;;;;;1.17;0.47;;;10.70;99.90;;;;;;4949599;28;20566;-86
2023/01/08 12:47:24;;;;;;;2.70;0.80;;;10.50;99.90;;;;;;4947676;28;20035;-87
2023/01/08 12:50:11;;;;;;;3.38;0.55;;;10.50;99.90;;;;;;4591522;28;10000328;-87
2023/01/08 12:52:40;;;;;;;6.82;0.50;;;10.50;99.90;;;;;;4936458;28;20061;-85
2023/01/08 12:55:21;;;;;;;3.08;0.55;;;10.50;99.90;;;;;;4276724;28;9999842;-86
2023/01/08 12:58:04;;;;;;;0.60;0.28;;;10.40;99.90;;;;;;4943218;28;20050;-86
2023/01/08 13:00:36;;;;;;;5.10;0.85;;;10.40;99.90;;;;;;4943324;28;20050;-85
2023/01/08 13:03:13;;;;;;;1.70;0.38;;;10.50;99.90;;;;;;4940904;28;20047;-86